Time;durP1;ratioP1;P1;durP2;ratioP2;P2;SDS_P1;SDS_P2;PMS_P1;PMS_P2;Temp;Humidity;BMP_temperature;BMP_pressure;BME280_temperature;BME280_humidity;BME280_pressure;Samples;Min_cycle;Max_cycle;Signal;HPM_P1;HPM_P2
2023/07/01 00:01:27;;;;;;;3.13;2.40;;;20.70;99.90;;;;;;4954420;28;1070294;-37
2023/07/01 00:03:52;;;;;;;3.38;2.30;;;20.70;99.90;;;;;;4991788;28;20034;-38
2023/07/01 00:06:19;;;;;;;4.32;2.63;;;20.70;99.90;;;;;;4992646;28;20030;-38
2023/07/01 00:08:45;;;;;;;2.97;2.20;;;20.70;99.90;;;;;;4991674;28;20072;-38
2023/07/01 00:11:11;;;;;;;2.88;2.30;;;20.70;99.90;;;;;;4991514;28;20030;-39
2023/07/01 00:13:36;;;;;;;2.35;2.00;;;20.70;99.90;;;;;;4991586;28;20026;-39
2023/07/01 00:16:04;;;;;;;4.03;2.47;;;20.70;99.90;;;;;;4991575;28;20386;-37
2023/07/01 00:18:29;;;;;;;5.38;2.20;;;20.70;99.90;;;;;;4992262;28;20023;-38
2023/07/01 00:20:55;;;;;;;3.10;2.15;;;20.70;99.90;;;;;;4991605;28;20412;-38
2023/07/01 00:23:21;;;;;;;3.25;2.40;;;20.70;99.90;;;;;;4992303;28;20393;-38
2023/07/01 00:25:47;;;;;;;3.97;2.10;;;20.70;99.90;;;;;;4992069;28;20121;-38
2023/07/01 00:28:12;;;;;;;2.45;2.10;;;20.70;99.90;;;;;;4995274;28;20027;-39
2023/07/01 00:30:38;;;;;;;3.40;2.30;;;20.70;99.90;;;;;;4995019;28;20497;-38
2023/07/01 00:33:05;;;;;;;2.50;2.10;;;20.70;99.90;;;;;;4995708;28;20022;-41
2023/07/01 00:35:34;;;;;;;4.38;2.10;;;20.70;99.90;;;;;;4995140;28;20023;-39
2023/07/01 00:37:59;;;;;;;2.78;2.00;;;20.70;99.90;;;;;;4995426;28;20404;-40
2023/07/01 00:40:25;;;;;;;2.95;2.08;;;20.70;99.90;;;;;;4994834;28;20018;-37
2023/07/01 00:42:51;;;;;;;2.85;2.25;;;20.70;99.90;;;;;;4995300;28;20053;-39
2023/07/01 00:45:17;;;;;;;3.00;1.95;;;20.70;99.90;;;;;;4994807;28;20033;-37
2023/07/01 00:47:42;;;;;;;2.97;2.03;;;20.70;99.90;;;;;;4995133;28;20031;-38
2023/07/01 00:50:12;;;;;;;5.38;2.13;;;20.70;99.90;;;;;;4995281;28;20023;-41
2023/07/01 00:52:39;;;;;;;2.85;2.10;;;20.70;99.90;;;;;;4995069;28;20026;-40
2023/07/01 00:55:07;;;;;;;4.10;2.05;;;20.70;99.90;;;;;;4995348;28;20026;-39
2023/07/01 00:57:33;;;;;;;3.28;2.10;;;20.70;99.90;;;;;;4994818;28;20027;-38
2023/07/01 01:00:01;;;;;;;3.00;2.10;;;20.70;99.90;;;;;;4994396;28;20039;-38
2023/07/01 01:02:34;;;;;;;2.65;1.83;;;20.70;99.90;;;;;;4994616;28;20037;-40
2023/07/01 01:05:10;;;;;;;4.20;2.03;;;20.70;99.90;;;;;;4994542;28;20082;-38
2023/07/01 01:08:04;;;;;;;2.10;1.80;;;20.70;99.90;;;;;;4994660;28;20019;-38
2023/07/01 01:10:32;;;;;;;3.87;2.17;;;20.70;99.90;;;;;;4995254;28;20034;-38
2023/07/01 01:13:00;;;;;;;3.13;1.77;;;20.70;99.90;;;;;;4994523;28;20102;-38
2023/07/01 01:15:27;;;;;;;4.57;2.10;;;20.70;99.90;;;;;;4995256;28;20516;-39
2023/07/01 01:17:56;;;;;;;3.17;1.98;;;20.70;99.90;;;;;;4994521;28;20035;-39
2023/07/01 01:20:23;;;;;;;6.97;2.00;;;20.70;99.90;;;;;;4994167;28;20019;-37
2023/07/01 01:22:58;;;;;;;6.18;1.80;;;20.70;99.90;;;;;;4993192;28;20026;-39
2023/07/01 01:25:29;;;;;;;5.28;2.15;;;20.70;99.90;;;;;;4994185;28;20026;-38
2023/07/01 01:27:56;;;;;;;4.85;1.83;;;20.70;99.90;;;;;;4994432;28;20027;-38
2023/07/01 01:30:23;;;;;;;5.65;2.08;;;20.70;99.90;;;;;;4994389;28;20022;-40
2023/07/01 01:32:49;;;;;;;2.67;1.85;;;20.70;99.90;;;;;;4994240;28;20456;-38
2023/07/01 01:35:14;;;;;;;6.90;2.03;;;20.70;99.90;;;;;;4993887;28;20030;-37
2023/07/01 01:37:49;;;;;;;4.93;2.00;;;20.70;99.90;;;;;;4993989;28;20028;-38
2023/07/01 01:40:36;;;;;;;5.60;2.35;;;20.70;99.90;;;;;;4993850;28;20030;-38
2023/07/01 01:43:20;;;;;;;5.47;2.30;;;20.70;99.90;;;;;;4994072;28;20502;-37
2023/07/01 01:45:47;;;;;;;6.93;2.07;;;20.60;99.90;;;;;;4994356;28;20030;-38
2023/07/01 01:48:13;;;;;;;6.55;1.90;;;20.70;99.90;;;;;;4994318;28;20297;-39
2023/07/01 01:50:41;;;;;;;5.72;2.00;;;20.60;99.90;;;;;;4993580;28;20045;-38
2023/07/01 01:53:10;;;;;;;2.90;1.80;;;20.70;99.90;;;;;;4993673;28;20027;-38
2023/07/01 01:55:37;;;;;;;5.40;1.90;;;20.70;99.90;;;;;;4993737;28;20482;-38
2023/07/01 01:58:03;;;;;;;5.55;2.00;;;20.70;99.90;;;;;;4993539;28;20034;-39
2023/07/01 02:00:33;;;;;;;3.17;1.90;;;20.70;99.90;;;;;;4993500;28;20084;-38
2023/07/01 02:02:59;;;;;;;2.92;1.60;;;20.60;99.90;;;;;;4993460;28;20018;-37
2023/07/01 02:05:25;;;;;;;3.55;1.83;;;20.70;99.90;;;;;;4993502;28;20041;-38
2023/07/01 02:07:50;;;;;;;4.50;1.67;;;20.70;99.90;;;;;;4993400;28;20026;-38
2023/07/01 02:10:16;;;;;;;3.17;1.80;;;20.70;99.90;;;;;;4993207;28;20022;-39
2023/07/01 02:12:42;;;;;;;2.92;1.73;;;20.60;99.90;;;;;;4993482;28;20419;-39
2023/07/01 02:15:08;;;;;;;6.68;2.13;;;20.60;99.90;;;;;;4993568;28;20080;-38
2023/07/01 02:17:33;;;;;;;6.97;1.90;;;20.60;99.90;;;;;;4993795;28;20031;-38
2023/07/01 02:19:59;;;;;;;4.72;2.10;;;20.70;99.90;;;;;;4993018;28;20441;-38
2023/07/01 02:22:24;;;;;;;3.50;1.70;;;20.60;99.90;;;;;;4993601;28;20030;-37
2023/07/01 02:24:50;;;;;;;4.47;1.83;;;20.60;99.90;;;;;;4992995;28;20026;-38
2023/07/01 02:27:15;;;;;;;5.93;1.80;;;20.70;99.90;;;;;;4993025;28;20030;-38
2023/07/01 02:29:44;;;;;;;4.43;1.60;;;20.70;99.90;;;;;;4993603;28;20109;-39
2023/07/01 02:32:09;;;;;;;5.15;2.05;;;20.60;99.90;;;;;;4993396;28;20026;-37
2023/07/01 02:34:35;;;;;;;5.20;1.90;;;20.60;99.90;;;;;;4992964;28;20033;-37
2023/07/01 02:37:01;;;;;;;6.60;1.95;;;20.70;99.90;;;;;;4992903;28;20023;-38
2023/07/01 02:39:26;;;;;;;3.85;1.77;;;20.60;99.90;;;;;;4992638;28;20490;-39
2023/07/01 02:41:52;;;;;;;5.22;1.90;;;20.60;99.90;;;;;;4992740;28;20397;-38
2023/07/01 02:44:18;;;;;;;3.13;1.80;;;20.60;99.90;;;;;;4992667;28;20027;-38
2023/07/01 02:46:43;;;;;;;3.63;1.80;;;20.60;99.90;;;;;;4992730;28;20019;-39
2023/07/01 02:49:09;;;;;;;4.88;1.98;;;20.60;99.90;;;;;;4992273;28;20113;-38
2023/07/01 02:51:34;;;;;;;5.78;2.08;;;20.60;99.90;;;;;;4993159;28;20023;-38
2023/07/01 02:54:00;;;;;;;5.10;1.98;;;20.60;99.90;;;;;;4992561;28;20030;-39
2023/07/01 02:56:26;;;;;;;5.07;2.15;;;20.60;99.90;;;;;;4993201;28;20084;-39
2023/07/01 02:58:52;;;;;;;2.15;1.77;;;20.60;99.90;;;;;;4992488;28;20101;-39
2023/07/01 03:01:17;;;;;;;2.92;1.98;;;20.60;99.90;;;;;;4992765;28;20584;-39
2023/07/01 03:03:43;;;;;;;2.63;1.70;;;20.60;99.90;;;;;;4992262;28;20034;-37
2023/07/01 03:06:11;;;;;;;2.65;1.80;;;20.60;99.90;;;;;;4992615;28;20066;-37
2023/07/01 03:08:37;;;;;;;2.42;1.75;;;20.60;99.90;;;;;;4992391;28;20054;-38
2023/07/01 03:11:03;;;;;;;3.40;1.70;;;20.60;99.90;;;;;;4992536;28;20513;-38
2023/07/01 03:13:28;;;;;;;5.55;1.70;;;20.60;99.90;;;;;;4992503;28;20022;-37
2023/07/01 03:15:55;;;;;;;3.78;1.90;;;20.60;99.90;;;;;;4992243;28;20441;-38
2023/07/01 03:18:21;;;;;;;3.30;1.92;;;20.60;99.90;;;;;;4990931;28;20085;-39
2023/07/01 03:20:46;;;;;;;2.38;1.70;;;20.60;99.90;;;;;;4992212;28;20030;-38
2023/07/01 03:23:12;;;;;;;2.53;1.73;;;20.60;99.90;;;;;;4992012;28;20030;-39
2023/07/01 03:25:38;;;;;;;2.60;1.90;;;20.50;99.90;;;;;;4992084;28;20026;-39
2023/07/01 03:28:04;;;;;;;3.80;1.98;;;20.60;99.90;;;;;;4992157;28;20022;-39
2023/07/01 03:30:31;;;;;;;2.40;1.77;;;20.60;99.90;;;;;;4990757;28;20022;-38
2023/07/01 03:32:56;;;;;;;2.30;1.73;;;20.50;99.90;;;;;;4992100;28;20022;-38
2023/07/01 03:35:22;;;;;;;2.10;1.75;;;20.60;99.90;;;;;;4992726;28;20621;-37
2023/07/01 03:37:48;;;;;;;5.28;2.15;;;20.50;99.90;;;;;;4992977;28;20481;-39
2023/07/01 03:40:13;;;;;;;2.50;1.75;;;20.50;99.90;;;;;;4991625;28;20038;-38
2023/07/01 03:42:42;;;;;;;4.03;1.70;;;20.60;99.90;;;;;;4991951;28;20023;-39
2023/07/01 03:45:11;;;;;;;2.10;1.55;;;20.50;99.90;;;;;;4991785;28;20625;-40
2023/07/01 03:47:39;;;;;;;3.58;1.73;;;20.60;99.90;;;;;;4991956;28;20101;-39
2023/07/01 03:50:08;;;;;;;2.55;1.70;;;20.50;99.90;;;;;;4991872;28;20023;-37
2023/07/01 03:52:36;;;;;;;2.35;1.70;;;20.50;99.90;;;;;;4991907;28;20034;-38
2023/07/01 03:55:05;;;;;;;3.28;1.75;;;20.50;99.90;;;;;;4992055;28;20026;-39
2023/07/01 03:57:32;;;;;;;2.50;1.60;;;20.50;99.90;;;;;;4992106;28;20032;-38
2023/07/01 03:59:58;;;;;;;3.08;1.63;;;20.50;99.90;;;;;;4991842;28;20027;-39
2023/07/01 04:02:23;;;;;;;2.53;1.67;;;20.60;99.90;;;;;;4994336;28;20141;-38
2023/07/01 04:04:49;;;;;;;3.55;1.88;;;20.60;99.90;;;;;;4995552;28;20498;-39
2023/07/01 04:07:16;;;;;;;2.55;1.40;;;20.60;99.90;;;;;;4995650;28;20026;-38
2023/07/01 04:09:41;;;;;;;3.30;1.77;;;20.50;99.90;;;;;;4995504;28;20391;-39
2023/07/01 04:12:07;;;;;;;3.30;1.70;;;20.60;99.90;;;;;;4995649;28;20049;-37
2023/07/01 04:14:33;;;;;;;3.03;1.80;;;20.50;99.90;;;;;;4995508;28;20034;-37
2023/07/01 04:17:00;;;;;;;1.90;1.60;;;20.50;99.90;;;;;;4995608;28;20088;-38
2023/07/01 04:19:25;;;;;;;3.25;1.70;;;20.50;99.90;;;;;;4995270;28;20037;-38
2023/07/01 04:21:51;;;;;;;3.40;1.50;;;20.60;99.90;;;;;;4995301;28;20035;-39
2023/07/01 04:24:16;;;;;;;4.78;1.60;;;20.50;99.90;;;;;;4995271;28;20030;-38
2023/07/01 04:26:43;;;;;;;4.32;1.60;;;20.50;99.90;;;;;;4995377;28;20565;-37
2023/07/01 04:29:10;;;;;;;1.92;1.52;;;20.50;99.90;;;;;;4995086;28;20022;-37
2023/07/01 04:31:35;;;;;;;2.95;1.60;;;20.50;99.90;;;;;;4995298;28;20029;-38
2023/07/01 04:34:01;;;;;;;3.00;1.98;;;20.50;99.90;;;;;;4994895;28;20038;-39
2023/07/01 04:36:27;;;;;;;2.25;1.63;;;20.50;99.90;;;;;;4995374;28;20042;-37
2023/07/01 04:38:52;;;;;;;2.25;1.67;;;20.50;99.90;;;;;;4995056;28;20026;-37
2023/07/01 04:41:18;;;;;;;2.80;1.40;;;20.50;99.90;;;;;;4995216;28;20505;-39
2023/07/01 04:43:44;;;;;;;2.40;1.67;;;20.50;99.90;;;;;;4994895;28;20031;-39
2023/07/01 04:46:09;;;;;;;3.10;1.70;;;20.50;99.90;;;;;;4993719;28;20108;-38
2023/07/01 04:48:35;;;;;;;1.70;1.38;;;20.50;99.90;;;;;;4994932;28;20070;-38
2023/07/01 04:51:01;;;;;;;2.78;1.83;;;20.50;99.90;;;;;;4995087;28;20450;-37
2023/07/01 04:53:26;;;;;;;2.35;1.52;;;20.50;99.90;;;;;;4994765;28;20026;-39
2023/07/01 04:55:52;;;;;;;1.95;1.55;;;20.50;99.90;;;;;;4994817;28;20085;-38
2023/07/01 04:58:17;;;;;;;3.33;1.73;;;20.50;99.90;;;;;;4993515;28;20084;-38
2023/07/01 05:00:44;;;;;;;2.38;1.55;;;20.50;99.90;;;;;;4994451;28;20058;-38
2023/07/01 05:03:10;;;;;;;2.20;1.80;;;20.50;99.90;;;;;;4994566;28;20033;-39
2023/07/01 05:05:35;;;;;;;4.50;1.60;;;20.50;99.90;;;;;;4994511;28;20019;-38
2023/07/01 05:08:01;;;;;;;3.22;1.63;;;20.50;99.90;;;;;;4994629;28;20097;-39
2023/07/01 05:10:27;;;;;;;2.22;1.80;;;20.50;99.90;;;;;;4994549;28;20025;-37
2023/07/01 05:12:53;;;;;;;2.83;1.70;;;20.50;99.90;;;;;;4994073;28;20114;-39
2023/07/01 05:15:18;;;;;;;2.15;1.75;;;20.50;99.90;;;;;;4994381;28;20034;-39
2023/07/01 05:17:44;;;;;;;4.10;1.88;;;20.50;99.90;;;;;;4995881;28;20027;-39
2023/07/01 05:20:10;;;;;;;2.15;1.58;;;20.50;99.90;;;;;;4994722;28;20080;-38
2023/07/01 05:22:36;;;;;;;3.08;1.75;;;20.50;99.90;;;;;;4994372;28;20089;-38
2023/07/01 05:25:03;;;;;;;2.30;1.80;;;20.50;99.90;;;;;;4995567;28;20425;-37
2023/07/01 05:27:29;;;;;;;2.90;1.88;;;20.50;99.90;;;;;;4994851;28;20038;-38
2023/07/01 05:29:55;;;;;;;3.08;1.67;;;20.50;99.90;;;;;;4994057;28;20018;-38
2023/07/01 05:32:21;;;;;;;2.05;1.58;;;20.50;99.90;;;;;;4994185;28;20022;-37
2023/07/01 05:34:47;;;;;;;3.25;1.95;;;20.50;99.90;;;;;;4994005;28;20037;-38
2023/07/01 05:37:12;;;;;;;1.98;1.58;;;20.50;99.90;;;;;;4994211;28;20026;-38
2023/07/01 05:39:38;;;;;;;2.53;1.80;;;20.50;99.90;;;;;;4993794;28;20387;-38
2023/07/01 05:42:04;;;;;;;2.88;1.80;;;20.50;99.90;;;;;;4994065;28;20474;-37
2023/07/01 05:44:30;;;;;;;3.35;1.50;;;20.50;99.90;;;;;;4993850;28;20050;-38
2023/07/01 05:46:56;;;;;;;2.13;1.67;;;20.50;99.90;;;;;;4994335;28;20015;-40
2023/07/01 05:49:21;;;;;;;2.22;1.55;;;20.50;99.90;;;;;;4993755;28;20486;-40
2023/07/01 05:51:48;;;;;;;2.83;1.70;;;20.50;99.90;;;;;;4993835;28;20105;-38
2023/07/01 05:54:13;;;;;;;1.95;1.50;;;20.50;99.90;;;;;;4993709;28;20018;-39
2023/07/01 05:56:39;;;;;;;1.88;1.55;;;20.50;99.90;;;;;;4993939;28;20497;-38
2023/07/01 05:59:04;;;;;;;3.25;1.75;;;20.50;99.90;;;;;;4993870;28;20022;-38
2023/07/01 06:01:31;;;;;;;2.70;1.45;;;20.50;99.90;;;;;;4993498;28;20144;-39
2023/07/01 06:03:57;;;;;;;3.33;1.52;;;20.50;99.90;;;;;;4993269;28;20038;-37
2023/07/01 06:06:22;;;;;;;3.15;1.55;;;20.50;99.90;;;;;;4993576;28;20030;-38
2023/07/01 06:08:48;;;;;;;2.65;1.50;;;20.60;99.90;;;;;;4993349;28;20022;-38
2023/07/01 06:11:14;;;;;;;2.78;1.77;;;20.50;99.90;;;;;;4993366;28;20026;-38
2023/07/01 06:13:46;;;;;;;3.15;1.50;;;20.50;99.90;;;;;;4993341;28;20034;-38
2023/07/01 06:16:15;;;;;;;3.65;1.77;;;20.50;99.90;;;;;;4993318;28;20030;-37
2023/07/01 06:18:41;;;;;;;2.22;1.60;;;20.50;99.90;;;;;;4993150;28;20039;-38
2023/07/01 06:21:08;;;;;;;1.80;1.40;;;20.50;99.90;;;;;;4993209;28;20030;-39
2023/07/01 06:23:37;;;;;;;2.50;1.98;;;20.50;99.90;;;;;;4993402;28;20395;-39
2023/07/01 06:26:06;;;;;;;2.42;1.50;;;20.50;99.90;;;;;;4992907;28;20401;-38
2023/07/01 06:28:32;;;;;;;4.50;1.75;;;20.50;99.90;;;;;;4993333;28;20386;-38
2023/07/01 06:30:57;;;;;;;2.92;1.80;;;20.50;99.90;;;;;;4992984;28;20026;-37
2023/07/01 06:33:23;;;;;;;3.35;1.70;;;20.50;99.90;;;;;;4992985;28;20027;-37
2023/07/01 06:35:49;;;;;;;3.20;1.50;;;20.60;99.90;;;;;;4992983;28;20033;-38
2023/07/01 06:38:14;;;;;;;2.25;1.60;;;20.50;99.90;;;;;;4993149;28;20027;-39
2023/07/01 06:40:40;;;;;;;2.03;1.40;;;20.50;99.90;;;;;;4992695;28;20026;-38
2023/07/01 06:43:06;;;;;;;2.78;1.50;;;20.60;99.90;;;;;;4992746;28;20034;-38
2023/07/01 06:45:32;;;;;;;3.55;1.60;;;20.60;99.90;;;;;;4992714;28;20018;-38
2023/07/01 06:47:58;;;;;;;2.10;1.42;;;20.60;99.90;;;;;;4993760;28;20050;-38
2023/07/01 06:50:24;;;;;;;2.22;1.70;;;20.50;99.90;;;;;;4992910;28;20561;-38
2023/07/01 06:52:50;;;;;;;2.30;1.60;;;20.60;99.90;;;;;;4992671;28;20026;-37
2023/07/01 06:55:15;;;;;;;1.95;1.50;;;20.60;99.90;;;;;;4992771;28;20038;-38
2023/07/01 06:57:42;;;;;;;3.28;1.50;;;20.50;99.90;;;;;;4992570;28;20490;-37
2023/07/01 07:00:12;;;;;;;2.33;1.40;;;20.60;99.90;;;;;;4992257;28;20593;-39
2023/07/01 07:02:38;;;;;;;2.08;1.55;;;20.50;99.90;;;;;;4992432;28;20100;-37
2023/07/01 07:05:05;;;;;;;1.95;1.42;;;20.60;99.90;;;;;;4992980;28;20113;-37
2023/07/01 07:07:31;;;;;;;3.72;1.38;;;20.60;99.90;;;;;;4992466;28;20101;-38
2023/07/01 07:09:57;;;;;;;2.42;1.45;;;20.60;99.90;;;;;;4992211;28;20092;-38
2023/07/01 07:12:22;;;;;;;2.53;1.10;;;20.60;99.90;;;;;;4992621;28;20433;-37
2023/07/01 07:14:48;;;;;;;4.03;1.40;;;20.60;99.90;;;;;;4992590;28;20035;-38
2023/07/01 07:17:14;;;;;;;2.90;1.50;;;20.60;99.90;;;;;;4992509;28;20026;-40
2023/07/01 07:19:39;;;;;;;2.05;1.60;;;20.60;99.90;;;;;;4992076;28;20456;-37
2023/07/01 07:22:05;;;;;;;2.83;1.55;;;20.60;99.90;;;;;;4992388;28;20447;-37
2023/07/01 07:24:31;;;;;;;1.95;1.50;;;20.60;99.90;;;;;;4992028;28;20477;-38
2023/07/01 07:27:00;;;;;;;2.40;1.38;;;20.60;99.90;;;;;;4992125;28;20033;-38
2023/07/01 07:29:29;;;;;;;3.83;1.73;;;20.60;99.90;;;;;;4991820;28;20045;-39
2023/07/01 07:31:56;;;;;;;2.05;1.60;;;20.60;99.90;;;;;;4991094;28;20382;-39
2023/07/01 07:34:22;;;;;;;1.55;1.33;;;20.60;99.90;;;;;;4992210;28;20097;-38
2023/07/01 07:36:48;;;;;;;3.08;1.33;;;20.60;99.90;;;;;;4991889;28;20129;-37
2023/07/01 07:39:14;;;;;;;1.98;1.33;;;20.60;99.90;;;;;;4991822;28;20525;-39
2023/07/01 07:41:41;;;;;;;1.73;1.02;;;20.60;99.90;;;;;;4991979;28;20038;-39
2023/07/01 07:44:07;;;;;;;2.90;1.70;;;20.60;99.90;;;;;;4991751;28;20374;-37
2023/07/01 07:46:34;;;;;;;4.03;1.50;;;20.60;99.90;;;;;;4991985;28;20557;-36
2023/07/01 07:48:59;;;;;;;8.30;1.20;;;20.60;99.90;;;;;;4991706;28;20034;-38
2023/07/01 07:51:25;;;;;;;3.05;1.50;;;20.60;99.90;;;;;;4991917;28;20409;-38
2023/07/01 07:53:51;;;;;;;2.70;1.35;;;20.50;99.90;;;;;;4991761;28;20405;-38
2023/07/01 07:56:17;;;;;;;6.03;1.40;;;20.40;99.90;;;;;;4991705;28;20493;-40
2023/07/01 07:58:42;;;;;;;12.55;1.55;;;20.40;99.90;;;;;;4991578;28;20061;-38
2023/07/01 08:01:08;;;;;;;8.02;1.50;;;20.40;99.90;;;;;;4983496;28;20036;-37
2023/07/01 08:03:34;;;;;;;9.18;1.70;;;20.40;99.90;;;;;;4972186;28;20089;-37
2023/07/01 08:05:59;;;;;;;1.77;1.40;;;20.40;99.90;;;;;;4972256;28;20038;-37
2023/07/01 08:08:25;;;;;;;5.65;1.33;;;20.40;99.90;;;;;;4972310;28;20023;-36
2023/07/01 08:10:52;;;;;;;8.50;1.80;;;20.40;99.90;;;;;;4971930;28;20570;-38
2023/07/01 08:13:18;;;;;;;9.45;1.58;;;20.40;99.90;;;;;;4972062;28;20033;-38
2023/07/01 08:15:44;;;;;;;3.38;1.40;;;20.40;99.90;;;;;;4972757;28;20018;-38
2023/07/01 08:18:09;;;;;;;4.15;1.50;;;20.40;99.90;;;;;;4972222;28;20023;-37
2023/07/01 08:20:35;;;;;;;1.70;1.13;;;20.50;99.90;;;;;;4971961;28;20031;-37
2023/07/01 08:23:01;;;;;;;2.85;1.45;;;20.50;99.90;;;;;;4972102;28;20029;-40
2023/07/01 08:25:27;;;;;;;3.60;1.15;;;20.50;99.90;;;;;;4971981;28;20034;-37
2023/07/01 08:27:53;;;;;;;4.97;1.33;;;20.50;99.90;;;;;;4972044;28;20057;-38
2023/07/01 08:30:21;;;;;;;1.98;1.27;;;20.50;99.90;;;;;;4971844;28;20564;-38
2023/07/01 08:32:47;;;;;;;7.05;1.63;;;20.60;99.90;;;;;;4972099;28;20030;-37
2023/07/01 08:35:12;;;;;;;3.25;1.67;;;20.60;99.90;;;;;;4971990;28;20035;-38
2023/07/01 08:37:38;;;;;;;3.60;1.50;;;20.60;99.90;;;;;;4972832;28;20034;-37
2023/07/01 08:40:04;;;;;;;2.78;1.15;;;20.60;99.90;;;;;;4971737;28;20019;-37
2023/07/01 08:42:47;;;;;;;1.98;1.20;;;20.60;99.90;;;;;;4972898;28;20066;-37
2023/07/01 08:45:13;;;;;;;2.25;1.25;;;20.70;99.90;;;;;;4972458;28;20027;-38
2023/07/01 08:47:40;;;;;;;2.50;1.23;;;20.60;99.90;;;;;;4973491;28;20135;-38
2023/07/01 08:50:07;;;;;;;3.15;1.40;;;20.70;99.90;;;;;;4975388;28;20035;-37
2023/07/01 08:52:42;;;;;;;3.88;1.70;;;20.70;99.90;;;;;;4975472;28;20031;-37
2023/07/01 08:55:11;;;;;;;4.82;1.30;;;20.70;99.90;;;;;;4975427;28;20081;-37
2023/07/01 08:57:40;;;;;;;2.13;1.20;;;20.70;99.90;;;;;;4975411;28;20034;-36
2023/07/01 09:00:09;;;;;;;2.20;1.13;;;20.70;99.90;;;;;;4975146;28;20027;-38
2023/07/01 09:02:36;;;;;;;1.92;1.33;;;20.70;99.90;;;;;;4975254;28;20505;-37
2023/07/01 09:05:02;;;;;;;1.10;1.00;;;20.70;99.90;;;;;;4975136;28;20034;-37
2023/07/01 09:07:29;;;;;;;2.30;1.00;;;20.70;99.90;;;;;;4975229;28;20719;-38
2023/07/01 09:09:59;;;;;;;1.75;1.25;;;20.70;99.90;;;;;;4974962;28;20030;-38
2023/07/01 09:12:28;;;;;;;1.60;1.00;;;20.80;99.90;;;;;;4975162;28;20094;-39
2023/07/01 09:15:01;;;;;;;3.25;1.30;;;20.80;99.90;;;;;;4975431;28;20122;-39
2023/07/01 09:17:31;;;;;;;3.60;1.25;;;20.80;99.90;;;;;;4975699;28;20083;-39
2023/07/01 09:20:02;;;;;;;1.95;1.08;;;20.80;99.90;;;;;;4974734;28;20023;-38
2023/07/01 09:22:28;;;;;;;3.55;1.40;;;20.80;99.90;;;;;;4975147;28;20105;-36
2023/07/01 09:24:55;;;;;;;1.48;1.00;;;20.80;99.90;;;;;;4975171;28;20570;-37
2023/07/01 09:27:21;;;;;;;2.47;1.13;;;20.80;99.90;;;;;;4975313;28;20023;-39
2023/07/01 09:29:47;;;;;;;2.45;1.08;;;20.80;99.90;;;;;;4974683;28;20046;-36
2023/07/01 09:32:26;;;;;;;2.17;1.25;;;20.80;99.90;;;;;;4974730;28;20049;-39
2023/07/01 09:34:55;;;;;;;1.70;1.00;;;20.80;99.90;;;;;;4974662;28;20034;-37
2023/07/01 09:37:22;;;;;;;1.27;1.08;;;20.80;99.90;;;;;;4975753;28;20089;-38
2023/07/01 09:39:49;;;;;;;4.20;1.20;;;20.80;99.90;;;;;;4974714;28;20050;-37
2023/07/01 09:42:16;;;;;;;8.35;1.60;;;20.80;99.90;;;;;;4975151;28;20023;-36
2023/07/01 09:44:43;;;;;;;3.75;1.40;;;20.80;99.90;;;;;;4974303;28;20026;-37
2023/07/01 09:47:10;;;;;;;9.23;1.60;;;20.80;99.70;;;;;;4974536;28;20030;-39
2023/07/01 09:49:38;;;;;;;3.35;1.20;;;20.80;99.90;;;;;;4974214;28;20029;-38
2023/07/01 09:52:04;;;;;;;7.72;1.40;;;20.80;99.90;;;;;;4974466;28;20027;-38
2023/07/01 09:54:30;;;;;;;3.03;1.30;;;20.80;99.90;;;;;;4974233;28;20027;-39
2023/07/01 09:56:58;;;;;;;1.83;1.20;;;20.80;99.90;;;;;;4974308;28;20031;-37
2023/07/01 09:59:24;;;;;;;3.85;1.20;;;20.80;99.90;;;;;;4973273;28;20023;-38
2023/07/01 10:01:54;;;;;;;3.30;1.38;;;20.80;99.20;;;;;;4974173;28;20030;-38
2023/07/01 10:04:25;;;;;;;4.97;1.20;;;20.80;99.30;;;;;;4974554;28;20125;-38
2023/07/01 10:06:50;;;;;;;2.45;1.38;;;20.80;98.90;;;;;;4974519;28;20019;-38
2023/07/01 10:09:16;;;;;;;6.32;1.70;;;20.90;99.50;;;;;;4974058;28;20098;-38
2023/07/01 10:11:42;;;;;;;3.85;1.30;;;20.90;98.40;;;;;;4974019;28;20019;-39
2023/07/01 10:14:09;;;;;;;6.85;1.90;;;20.90;98.90;;;;;;4973821;28;20372;-40
2023/07/01 10:16:47;;;;;;;2.45;1.45;;;20.90;98.80;;;;;;4973958;28;20060;-39
2023/07/01 10:19:49;;;;;;;4.82;1.33;;;21.00;98.40;;;;;;4973693;28;20046;-40
2023/07/01 10:22:22;;;;;;;3.25;1.40;;;21.00;98.90;;;;;;4962314;28;20034;-39
2023/07/01 10:25:08;;;;;;;3.13;1.77;;;21.10;98.10;;;;;;4973660;28;20050;-39
2023/07/01 10:27:40;;;;;;;10.80;1.83;;;21.10;98.00;;;;;;4973738;28;20023;-38
2023/07/01 10:30:09;;;;;;;5.43;1.65;;;21.10;98.30;;;;;;4973548;28;20390;-39
2023/07/01 10:32:35;;;;;;;4.05;1.55;;;21.10;98.00;;;;;;4973654;28;20210;-39
2023/07/01 10:35:04;;;;;;;5.32;1.73;;;21.20;96.70;;;;;;4973491;28;20030;-38
2023/07/01 10:37:33;;;;;;;3.05;1.73;;;21.30;97.00;;;;;;4973581;28;20161;-39
2023/07/01 10:40:42;;;;;;;3.10;1.75;;;21.30;97.40;;;;;;4973388;28;20031;-38
2023/07/01 10:43:24;;;;;;;6.80;2.50;;;21.20;97.70;;;;;;4973464;28;20035;-38
2023/07/01 10:46:22;;;;;;;6.88;2.30;;;21.30;96.70;;;;;;4973369;28;20560;-38
2023/07/01 10:49:03;;;;;;;7.05;2.47;;;21.30;96.80;;;;;;4973247;28;20046;-38
2023/07/01 10:51:51;;;;;;;8.40;2.47;;;21.30;96.90;;;;;;4973465;28;20426;-38
2023/07/01 10:54:31;;;;;;;6.20;2.42;;;21.30;96.70;;;;;;4973095;28;20038;-38
2023/07/01 10:57:18;;;;;;;5.28;2.40;;;21.30;97.00;;;;;;4973317;28;20346;-39
2023/07/01 10:59:44;;;;;;;2.67;1.83;;;21.30;97.00;;;;;;4972969;28;20027;-39
2023/07/01 11:02:31;;;;;;;5.22;2.28;;;21.30;95.80;;;;;;4973086;28;20514;-38
2023/07/01 11:04:56;;;;;;;5.32;2.17;;;21.30;96.70;;;;;;4972942;28;20086;-39
2023/07/01 11:07:24;;;;;;;8.63;2.40;;;21.30;96.30;;;;;;4973144;28;20726;-39
2023/07/01 11:09:50;;;;;;;11.15;2.75;;;21.30;96.90;;;;;;4972421;28;20031;-39
2023/07/01 11:12:15;;;;;;;4.13;2.22;;;21.30;96.70;;;;;;4973648;28;20029;-39
2023/07/01 11:14:41;;;;;;;5.65;2.30;;;21.20;96.40;;;;;;4972829;28;20031;-39
2023/07/01 11:17:13;;;;;;;5.13;2.30;;;21.30;96.30;;;;;;4972880;28;20395;-38
2023/07/01 11:19:38;;;;;;;5.75;1.90;;;21.30;96.30;;;;;;4972734;28;20026;-40
2023/07/01 11:22:05;;;;;;;4.35;2.13;;;21.30;95.20;;;;;;4972810;28;20483;-38
2023/07/01 11:24:31;;;;;;;4.18;2.00;;;21.30;95.80;;;;;;4972584;28;20482;-38
2023/07/01 11:27:02;;;;;;;5.38;1.75;;;21.30;96.20;;;;;;4972653;28;20027;-38
2023/07/01 11:29:28;;;;;;;4.35;1.92;;;21.30;96.50;;;;;;4972513;28;20098;-39
2023/07/01 11:31:58;;;;;;;5.68;2.33;;;21.30;96.60;;;;;;4972699;28;20027;-39
2023/07/01 11:34:23;;;;;;;2.75;1.88;;;21.30;97.00;;;;;;4972602;28;20146;-39
2023/07/01 11:36:49;;;;;;;5.75;1.90;;;21.30;96.90;;;;;;4972587;28;20126;-38
2023/07/01 11:39:16;;;;;;;3.63;1.85;;;21.30;96.70;;;;;;4972314;28;20053;-39
2023/07/01 11:42:03;;;;;;;3.15;1.90;;;21.30;96.30;;;;;;4972531;28;20386;-39
2023/07/01 11:44:34;;;;;;;4.35;1.90;;;21.30;96.90;;;;;;4972145;28;20035;-39
2023/07/01 11:47:00;;;;;;;5.43;2.30;;;21.30;97.40;;;;;;4972555;28;20098;-39
2023/07/01 11:49:30;;;;;;;3.95;2.38;;;21.20;97.30;;;;;;4972253;28;20037;-39
2023/07/01 11:51:58;;;;;;;9.52;2.08;;;21.10;97.30;;;;;;4972378;28;20414;-38
2023/07/01 11:54:38;;;;;;;3.83;1.80;;;21.10;97.40;;;;;;4972321;28;20034;-39
2023/07/01 11:57:14;;;;;;;5.30;1.70;;;21.10;97.70;;;;;;4972444;28;20069;-39
2023/07/01 11:59:41;;;;;;;6.80;1.98;;;21.00;98.20;;;;;;4972154;28;20037;-38
2023/07/01 12:02:08;;;;;;;5.72;2.08;;;21.00;98.40;;;;;;4972226;28;20054;-38
2023/07/01 12:04:35;;;;;;;5.13;1.85;;;21.00;98.70;;;;;;4972067;28;20027;-39
2023/07/01 12:07:07;;;;;;;4.47;1.80;;;20.90;99.30;;;;;;4972331;28;20027;-39
2023/07/01 12:09:34;;;;;;;3.55;1.70;;;21.00;99.60;;;;;;4972099;28;20030;-39
2023/07/01 12:11:59;;;;;;;7.85;1.90;;;20.90;99.30;;;;;;4972374;28;20500;-39
2023/07/01 12:14:25;;;;;;;6.10;2.13;;;20.90;99.20;;;;;;4987139;28;20062;-39
2023/07/01 12:16:53;;;;;;;4.90;1.45;;;20.80;98.80;;;;;;4972242;28;20027;-39
2023/07/01 12:19:23;;;;;;;5.75;1.65;;;20.80;98.80;;;;;;4972053;28;20054;-39
2023/07/01 12:21:50;;;;;;;5.20;1.80;;;20.80;98.60;;;;;;4972289;28;20085;-39
2023/07/01 12:24:27;;;;;;;3.60;1.60;;;20.80;98.70;;;;;;4975845;28;20030;-39
2023/07/01 12:26:55;;;;;;;3.50;1.60;;;20.80;98.70;;;;;;4990934;28;20114;-39
2023/07/01 12:29:24;;;;;;;4.50;1.63;;;20.80;98.90;;;;;;4975586;28;20030;-38
2023/07/01 12:31:53;;;;;;;4.95;1.40;;;20.80;98.10;;;;;;4975921;28;20026;-39
2023/07/01 12:34:19;;;;;;;3.63;1.63;;;20.80;98.60;;;;;;4975712;28;20027;-39
2023/07/01 12:36:46;;;;;;;2.58;1.40;;;20.80;98.50;;;;;;4976071;28;20042;-39
2023/07/01 12:39:14;;;;;;;3.22;1.55;;;20.80;98.60;;;;;;4975503;28;20387;-39
2023/07/01 12:41:40;;;;;;;2.10;1.42;;;20.70;98.70;;;;;;4975723;28;20121;-39
2023/07/01 12:44:08;;;;;;;3.88;1.60;;;20.70;98.90;;;;;;4975424;28;20033;-40
2023/07/01 12:46:35;;;;;;;4.28;1.40;;;20.80;99.00;;;;;;4975637;28;20363;-39
2023/07/01 12:49:03;;;;;;;4.53;1.45;;;20.80;99.20;;;;;;4975334;28;20385;-38